createdAt,value
2017-06-25T00:00:09.072Z,17.63
2017-06-25T00:00:21.977Z,17.65
2017-06-25T00:00:35.011Z,17.8
2017-06-25T00:00:48.441Z,17.66
2017-06-25T00:01:01.391Z,17.73
2017-06-25T00:01:14.801Z,17.76
2017-06-25T00:01:27.729Z,17.62
2017-06-25T00:01:40.653Z,17.63
2017-06-25T00:01:54.122Z,17.63
2017-06-25T00:02:07.069Z,17.77
2017-06-25T00:02:19.975Z,17.65
2017-06-25T00:02:33.392Z,17.65
2017-06-25T00:02:46.855Z,17.71
2017-06-25T00:02:59.783Z,17.73
2017-06-25T00:03:13.268Z,17.63
2017-06-25T00:03:26.151Z,17.63
2017-06-25T00:03:38.589Z,17.65
2017-06-25T00:03:52.013Z,17.62
2017-06-25T00:04:04.941Z,17.65
2017-06-25T00:04:18.354Z,17.71
2017-06-25T00:04:31.250Z,17.6
2017-06-25T00:04:44.173Z,17.66
2017-06-25T00:04:57.667Z,17.65
2017-06-25T00:05:11.090Z,17.69
2017-06-25T00:05:24.501Z,17.68
2017-06-25T00:05:37.988Z,17.69
2017-06-25T00:05:51.448Z,17.65
2017-06-25T00:06:04.962Z,17.65
2017-06-25T00:06:18.429Z,17.69
2017-06-25T00:06:30.830Z,17.73
2017-06-25T00:06:44.338Z,17.69
2017-06-25T00:06:57.774Z,17.65
2017-06-25T00:07:11.253Z,17.74
2017-06-25T00:07:24.185Z,17.77
2017-06-25T00:07:36.631Z,17.69
2017-06-25T00:07:50.048Z,17.76
2017-06-25T00:08:03.000Z,17.68
2017-06-25T00:08:16.420Z,17.62
2017-06-25T00:08:29.302Z,17.69
2017-06-25T00:08:42.410Z,17.66
2017-06-25T00:08:55.893Z,17.65
2017-06-25T00:09:09.292Z,17.8
2017-06-25T00:09:22.258Z,17.68
2017-06-25T00:09:34.587Z,17.81
2017-06-25T00:09:48.004Z,17.6
2017-06-25T00:10:01.486Z,17.66
2017-06-25T00:10:14.957Z,17.76
2017-06-25T00:10:28.376Z,17.77
2017-06-25T00:10:41.301Z,17.65
2017-06-25T00:10:54.225Z,17.77
2017-06-25T00:11:07.622Z,17.79
2017-06-25T00:11:21.067Z,17.8
2017-06-25T00:11:33.494Z,17.68
2017-06-25T00:11:46.473Z,17.74
2017-06-25T00:11:59.930Z,17.66
2017-06-25T00:12:13.373Z,17.77
2017-06-25T00:12:26.315Z,17.65
2017-06-25T00:12:39.213Z,17.76
2017-06-25T00:12:52.205Z,17.68
2017-06-25T00:13:05.732Z,17.73
2017-06-25T00:13:19.237Z,17.8
2017-06-25T00:13:32.122Z,17.68
2017-06-25T00:13:45.538Z,17.79
2017-06-25T00:13:59.181Z,17.79
2017-06-25T00:14:12.141Z,17.68
2017-06-25T00:14:25.595Z,17.79
2017-06-25T00:14:38.524Z,17.68
2017-06-25T00:14:52.023Z,17.74
2017-06-25T00:15:05.489Z,17.76
2017-06-25T00:15:18.915Z,17.68
2017-06-25T00:15:31.834Z,17.65
2017-06-25T00:15:44.804Z,17.66
2017-06-25T00:15:57.798Z,17.77
2017-06-25T00:16:10.730Z,17.79
2017-06-25T00:16:24.167Z,17.77
2017-06-25T00:16:35.532Z,17.79
2017-06-25T00:16:49.026Z,17.79
2017-06-25T00:17:02.513Z,17.76
2017-06-25T00:17:15.985Z,17.73
2017-06-25T00:17:28.882Z,17.62
2017-06-25T00:17:42.336Z,17.69
2017-06-25T00:17:55.803Z,17.76
2017-06-25T00:18:09.221Z,17.74
2017-06-25T00:18:22.654Z,17.74
2017-06-25T00:18:35.619Z,17.68
2017-06-25T00:18:49.053Z,17.74
2017-06-25T00:19:01.960Z,17.76
2017-06-25T00:19:15.386Z,17.66
2017-06-25T00:19:28.329Z,17.74
2017-06-25T00:19:41.269Z,17.69
2017-06-25T00:19:54.688Z,17.62
2017-06-25T00:20:08.176Z,17.68
2017-06-25T00:20:21.075Z,17.63
2017-06-25T00:20:34.528Z,17.66
2017-06-25T00:20:47.926Z,17.68
2017-06-25T00:21:01.355Z,17.71
2017-06-25T00:21:14.785Z,17.69
2017-06-25T00:21:27.773Z,17.66
2017-06-25T00:21:41.212Z,17.73
2017-06-25T00:21:54.670Z,17.69
2017-06-25T00:22:08.155Z,17.69
2017-06-25T00:22:21.640Z,17.63
2017-06-25T00:22:34.523Z,17.63
2017-06-25T00:22:48.017Z,17.68
2017-06-25T00:23:01.493Z,17.73
2017-06-25T00:23:14.938Z,17.71
2017-06-25T00:23:27.857Z,17.76
2017-06-25T00:23:40.773Z,17.73
2017-06-25T00:23:54.198Z,17.77
2017-06-25T00:24:07.630Z,17.65
2017-06-25T00:24:21.066Z,17.65
2017-06-25T00:24:33.954Z,17.8
2017-06-25T00:24:47.363Z,17.76
2017-06-25T00:25:00.881Z,17.63
2017-06-25T00:25:14.344Z,17.65
2017-06-25T00:25:27.773Z,17.66
2017-06-25T00:25:41.239Z,17.66
2017-06-25T00:25:54.174Z,17.8
2017-06-25T00:26:07.103Z,17.74
2017-06-25T00:26:20.845Z,17.71
2017-06-25T00:26:34.325Z,17.68
2017-06-25T00:26:47.754Z,17.69
2017-06-25T00:27:01.158Z,17.8
2017-06-25T00:27:14.559Z,17.79
2017-06-25T00:27:27.456Z,17.79
2017-06-25T00:27:39.886Z,17.65
2017-06-25T00:27:53.359Z,17.77
2017-06-25T00:28:06.768Z,17.68
2017-06-25T00:28:19.694Z,17.66
2017-06-25T00:28:32.571Z,17.65
2017-06-25T00:28:46.109Z,17.65
2017-06-25T00:28:59.312Z,17.66
2017-06-25T00:29:12.754Z,17.66
2017-06-25T00:29:26.230Z,17.71
2017-06-25T00:29:38.684Z,17.66
2017-06-25T00:29:52.111Z,17.77
2017-06-25T00:30:04.523Z,17.69
2017-06-25T00:30:18.161Z,17.76
2017-06-25T00:30:31.074Z,17.71
2017-06-25T00:30:44.026Z,17.73
2017-06-25T00:30:56.921Z,17.62
2017-06-25T00:31:10.388Z,17.71
2017-06-25T00:31:23.790Z,17.68
2017-06-25T00:31:35.146Z,17.69
2017-06-25T00:31:48.553Z,17.76
2017-06-25T00:32:02.006Z,17.71
2017-06-25T00:32:15.527Z,17.66
2017-06-25T00:32:28.422Z,17.66
2017-06-25T00:32:41.343Z,17.76
2017-06-25T00:32:54.824Z,17.62
2017-06-25T00:33:08.303Z,17.66
2017-06-25T00:33:21.733Z,17.66
2017-06-25T00:33:34.697Z,17.68
2017-06-25T00:33:48.141Z,17.69
2017-06-25T00:34:01.578Z,17.65
2017-06-25T00:34:15.024Z,17.65
2017-06-25T00:34:27.958Z,17.69
2017-06-25T00:34:40.874Z,17.71
2017-06-25T00:34:53.747Z,17.62
2017-06-25T00:35:06.684Z,17.71
2017-06-25T00:35:20.141Z,17.69
2017-06-25T00:35:32.568Z,17.69
2017-06-25T00:35:45.473Z,17.69
2017-06-25T00:35:58.901Z,17.68
2017-06-25T00:36:11.822Z,17.63
2017-06-25T00:36:25.282Z,17.71
2017-06-25T00:36:38.236Z,17.68
2017-06-25T00:36:51.708Z,17.71
2017-06-25T00:37:05.192Z,17.68
2017-06-25T00:37:18.653Z,17.66
2017-06-25T00:37:31.606Z,17.66
2017-06-25T00:37:44.519Z,17.69
2017-06-25T00:37:57.996Z,17.63
2017-06-25T00:38:11.468Z,17.68
2017-06-25T00:38:24.896Z,17.76
2017-06-25T00:38:37.363Z,17.62
2017-06-25T00:38:50.791Z,17.69
2017-06-25T00:39:04.308Z,17.63
2017-06-25T00:39:17.263Z,17.69
2017-06-25T00:39:30.207Z,17.65
2017-06-25T00:39:43.186Z,17.69
2017-06-25T00:39:56.098Z,17.79
2017-06-25T00:40:08.975Z,17.65
2017-06-25T00:40:22.440Z,17.66
2017-06-25T00:40:35.397Z,17.71
2017-06-25T00:40:48.295Z,17.63
2017-06-25T00:41:01.729Z,17.77
2017-06-25T00:41:14.728Z,17.62
2017-06-25T00:41:28.154Z,17.65
2017-06-25T00:41:41.101Z,17.69
2017-06-25T00:41:54.518Z,17.76
2017-06-25T00:42:07.964Z,17.66
2017-06-25T00:42:21.458Z,17.76
2017-06-25T00:42:34.359Z,17.69
2017-06-25T00:42:46.747Z,17.69
2017-06-25T00:42:59.643Z,17.66
2017-06-25T00:43:13.060Z,17.69
2017-06-25T00:43:26.530Z,17.69
2017-06-25T00:43:40.009Z,17.69
2017-06-25T00:43:53.469Z,17.76
2017-06-25T00:44:07.251Z,17.65
2017-06-25T00:44:20.176Z,17.69
2017-06-25T00:44:33.145Z,17.74
2017-06-25T00:44:46.118Z,17.58
2017-06-25T00:44:59.636Z,17.65
2017-06-25T00:45:13.089Z,17.66
2017-06-25T00:45:25.523Z,17.68
2017-06-25T00:45:37.451Z,17.73
2017-06-25T00:45:50.862Z,17.68
2017-06-25T00:46:04.309Z,17.68
2017-06-25T00:46:17.685Z,17.73
2017-06-25T00:46:30.612Z,17.71
2017-06-25T00:46:42.963Z,17.74
2017-06-25T00:46:56.441Z,17.76
2017-06-25T00:47:09.332Z,17.62
2017-06-25T00:47:22.736Z,17.76
2017-06-25T00:47:35.656Z,17.66
2017-06-25T00:47:49.113Z,17.63
2017-06-25T00:48:02.024Z,17.66
2017-06-25T00:48:14.918Z,17.69
2017-06-25T00:48:27.789Z,17.68
2017-06-25T00:48:41.262Z,17.66
2017-06-25T00:49:06.340Z,17.62
2017-06-25T00:49:19.783Z,17.68
2017-06-25T00:49:33.249Z,17.68
2017-06-25T00:49:46.155Z,17.65
2017-06-25T00:49:59.630Z,17.68
2017-06-25T00:50:12.548Z,17.66
2017-06-25T00:50:26.010Z,17.68
2017-06-25T00:50:38.884Z,17.62
2017-06-25T00:50:52.319Z,17.63
2017-06-25T00:51:05.262Z,17.69
2017-06-25T00:51:18.772Z,17.65
2017-06-25T00:51:31.693Z,17.65
2017-06-25T00:51:44.606Z,17.63
2017-06-25T00:51:58.108Z,17.65
2017-06-25T00:52:11.096Z,17.65
2017-06-25T00:52:24.573Z,17.66
2017-06-25T00:52:37.489Z,17.71
2017-06-25T00:52:49.875Z,17.71
2017-06-25T00:53:03.341Z,17.71
2017-06-25T00:53:16.297Z,17.6
2017-06-25T00:53:29.818Z,17.62
2017-06-25T00:53:42.752Z,17.63
2017-06-25T00:53:56.195Z,17.6
2017-06-25T00:54:09.240Z,17.6
2017-06-25T00:54:22.673Z,17.57
2017-06-25T00:54:35.656Z,17.58
2017-06-25T00:54:49.065Z,17.58
2017-06-25T00:55:01.986Z,17.62
2017-06-25T00:55:15.373Z,17.57
2017-06-25T00:55:28.313Z,17.62
2017-06-25T00:55:41.757Z,17.6
2017-06-25T00:55:54.669Z,17.58
2017-06-25T00:56:08.113Z,17.6
2017-06-25T00:56:21.062Z,17.6
2017-06-25T00:56:34.574Z,17.57
2017-06-25T00:56:47.430Z,17.6
2017-06-25T00:57:00.880Z,17.63
2017-06-25T00:57:13.793Z,17.6
2017-06-25T00:57:26.798Z,17.6
2017-06-25T00:57:39.752Z,17.66
2017-06-25T00:57:52.674Z,17.6
2017-06-25T00:58:06.120Z,17.6
2017-06-25T00:58:19.579Z,17.62
2017-06-25T00:58:33.023Z,17.58
2017-06-25T00:58:45.419Z,17.55
2017-06-25T00:58:58.914Z,17.52
2017-06-25T00:59:12.629Z,17.55
2017-06-25T00:59:25.515Z,17.55
2017-06-25T00:59:39.256Z,17.54
2017-06-25T00:59:52.169Z,17.57
2017-06-25T01:00:05.636Z,17.57
2017-06-25T01:00:19.108Z,17.63
2017-06-25T01:00:32.106Z,17.55
2017-06-25T01:00:45.075Z,17.55
2017-06-25T01:00:58.552Z,17.58
2017-06-25T01:01:12.052Z,17.57
2017-06-25T01:01:25.517Z,17.55
2017-06-25T01:01:36.868Z,17.58
2017-06-25T01:01:50.330Z,17.58
2017-06-25T01:02:03.788Z,17.49
2017-06-25T01:02:17.223Z,17.57
2017-06-25T01:02:29.650Z,17.58
2017-06-25T01:02:42.584Z,17.57
2017-06-25T01:02:55.996Z,17.5
2017-06-25T01:03:09.459Z,17.52
2017-06-25T01:03:22.906Z,17.49
2017-06-25T01:03:35.860Z,17.55
2017-06-25T01:03:49.322Z,17.54
2017-06-25T01:04:02.782Z,17.52
2017-06-25T01:04:16.227Z,17.54
2017-06-25T01:04:29.149Z,17.57
2017-06-25T01:04:42.077Z,17.52
2017-06-25T01:04:55.049Z,17.54
2017-06-25T01:05:08.060Z,17.5
2017-06-25T01:05:21.005Z,17.55
2017-06-25T01:05:34.152Z,17.49
2017-06-25T01:05:47.617Z,17.49
2017-06-25T01:06:01.131Z,17.6
2017-06-25T01:06:14.105Z,17.54
2017-06-25T01:06:27.525Z,17.55
2017-06-25T01:06:39.986Z,17.52
2017-06-25T01:06:53.395Z,17.52
2017-06-25T01:07:06.316Z,17.54
2017-06-25T01:07:19.791Z,17.46
2017-06-25T01:07:32.216Z,17.52
2017-06-25T01:07:45.190Z,17.46
2017-06-25T01:07:58.630Z,17.57
2017-06-25T01:08:12.082Z,17.52
2017-06-25T01:08:25.508Z,17.55
2017-06-25T01:08:38.923Z,17.54
2017-06-25T01:08:52.367Z,17.49
2017-06-25T01:09:04.744Z,17.52
2017-06-25T01:09:18.240Z,17.49
2017-06-25T01:09:31.676Z,17.47
2017-06-25T01:09:45.089Z,17.54
2017-06-25T01:09:58.021Z,17.49
2017-06-25T01:10:11.464Z,17.54
2017-06-25T01:10:24.895Z,17.5
2017-06-25T01:10:38.310Z,17.52
2017-06-25T01:10:51.787Z,17.54
2017-06-25T01:11:04.737Z,17.57
2017-06-25T01:11:18.205Z,17.54
2017-06-25T01:11:31.144Z,17.52
2017-06-25T01:11:44.089Z,17.54
2017-06-25T01:11:57.585Z,17.57
2017-06-25T01:12:11.062Z,17.57
2017-06-25T01:12:24.513Z,17.46
2017-06-25T01:12:37.975Z,17.43
2017-06-25T01:12:51.474Z,17.47
2017-06-25T01:13:05.018Z,17.43
2017-06-25T01:13:18.505Z,17.52
2017-06-25T01:13:31.493Z,17.39
2017-06-25T01:13:44.924Z,17.43
2017-06-25T01:13:57.867Z,17.45
2017-06-25T01:14:11.327Z,17.39
2017-06-25T01:14:25.067Z,17.38
2017-06-25T01:14:38.462Z,17.38
2017-06-25T01:14:51.924Z,17.4
2017-06-25T01:15:04.865Z,17.45
2017-06-25T01:15:18.300Z,17.39
2017-06-25T01:15:31.765Z,17.49
2017-06-25T01:15:45.211Z,17.36
2017-06-25T01:15:58.192Z,17.4
2017-06-25T01:16:11.875Z,17.42
2017-06-25T01:16:24.829Z,17.3
2017-06-25T01:16:38.300Z,17.4
2017-06-25T01:16:51.764Z,17.39
2017-06-25T01:17:04.686Z,17.31
2017-06-25T01:17:18.141Z,17.4
2017-06-25T01:17:31.579Z,17.39
2017-06-25T01:17:45.065Z,17.38
2017-06-25T01:17:58.007Z,17.32
2017-06-25T01:18:11.459Z,17.35
2017-06-25T01:18:24.988Z,17.36
2017-06-25T01:18:38.498Z,17.32
2017-06-25T01:18:51.979Z,17.38
2017-06-25T01:19:04.926Z,17.36
2017-06-25T01:19:18.387Z,17.27
2017-06-25T01:19:31.887Z,17.28
2017-06-25T01:19:45.333Z,17.32
2017-06-25T01:19:58.818Z,17.3
2017-06-25T01:20:12.229Z,17.27
2017-06-25T01:20:25.667Z,17.31
2017-06-25T01:20:39.151Z,17.27
2017-06-25T01:20:52.554Z,17.28
2017-06-25T01:21:05.998Z,17.3
2017-06-25T01:21:18.361Z,17.24
2017-06-25T01:21:31.833Z,17.3
2017-06-25T01:21:45.476Z,17.22
2017-06-25T01:21:58.886Z,17.27
2017-06-25T01:22:12.327Z,17.24
2017-06-25T01:22:25.720Z,17.21
2017-06-25T01:22:39.215Z,17.22
2017-06-25T01:22:52.614Z,17.27
2017-06-25T01:23:06.049Z,17.28
2017-06-25T01:23:19.519Z,17.28
2017-06-25T01:23:33.003Z,17.2
2017-06-25T01:23:46.415Z,17.24
2017-06-25T01:23:59.316Z,17.22
2017-06-25T01:24:12.807Z,17.22
2017-06-25T01:24:25.755Z,17.25
2017-06-25T01:24:39.255Z,17.27
2017-06-25T01:24:52.206Z,17.28
2017-06-25T01:25:05.629Z,17.21
2017-06-25T01:25:19.068Z,17.24
2017-06-25T01:25:32.525Z,17.24
2017-06-25T01:25:46.038Z,17.22
2017-06-25T01:25:59.448Z,17.18
2017-06-25T01:26:12.873Z,17.2
2017-06-25T01:26:26.367Z,17.28
2017-06-25T01:26:39.821Z,17.27
2017-06-25T01:26:53.303Z,17.28
2017-06-25T01:27:06.182Z,17.27
2017-06-25T01:27:19.132Z,17.27
2017-06-25T01:27:32.570Z,17.22
2017-06-25T01:27:46.000Z,17.25
2017-06-25T01:27:58.956Z,17.18
2017-06-25T01:28:12.372Z,17.24
2017-06-25T01:28:25.771Z,17.2
2017-06-25T01:28:39.237Z,17.28
2017-06-25T01:28:52.756Z,17.28
2017-06-25T01:29:05.678Z,17.25
2017-06-25T01:29:19.124Z,17.24
2017-06-25T01:29:32.285Z,17.24
2017-06-25T01:29:45.744Z,17.27
2017-06-25T01:29:59.190Z,17.22
2017-06-25T01:30:12.604Z,17.24
2017-06-25T01:30:26.049Z,17.22
2017-06-25T01:30:39.551Z,17.25
2017-06-25T01:30:52.988Z,17.28
2017-06-25T01:31:06.620Z,17.17
2017-06-25T01:31:20.148Z,17.21
2017-06-25T01:31:33.616Z,17.22
2017-06-25T01:31:47.116Z,17.2
2017-06-25T01:32:00.541Z,17.2
2017-06-25T01:32:13.966Z,17.13
2017-06-25T01:32:27.427Z,17.17
2017-06-25T01:32:40.334Z,17.13
2017-06-25T01:32:53.785Z,17.22
2017-06-25T01:33:06.197Z,17.22
2017-06-25T01:33:19.712Z,17.15
2017-06-25T01:33:33.152Z,17.15
2017-06-25T01:33:46.613Z,17.18
2017-06-25T01:34:00.112Z,17.18
2017-06-25T01:34:13.658Z,17.18
2017-06-25T01:34:27.188Z,17.09
2017-06-25T01:34:40.607Z,17.18
2017-06-25T01:34:54.083Z,17.17
2017-06-25T01:35:07.522Z,17.15
2017-06-25T01:35:21.001Z,17.17
2017-06-25T01:35:34.426Z,17.15
2017-06-25T01:35:47.835Z,17.18
2017-06-25T01:36:00.744Z,17.17
2017-06-25T01:36:14.401Z,17.18
2017-06-25T01:36:27.831Z,17.22
2017-06-25T01:36:41.256Z,17.13
2017-06-25T01:36:54.790Z,17.17
2017-06-25T01:37:08.181Z,17.21
2017-06-25T01:37:21.631Z,17.13
2017-06-25T01:37:34.542Z,17.13
2017-06-25T01:37:48.029Z,17.17
2017-06-25T01:38:01.519Z,17.13
2017-06-25T01:38:14.473Z,17.1
2017-06-25T01:38:27.392Z,17.1
2017-06-25T01:38:40.876Z,17.17
2017-06-25T01:38:54.341Z,17.18
2017-06-25T01:39:07.893Z,17.15
2017-06-25T01:39:21.382Z,17.03
2017-06-25T01:39:34.890Z,17.1
2017-06-25T01:39:48.322Z,17.1
2017-06-25T01:40:01.812Z,17.06
2017-06-25T01:40:14.752Z,17.15
2017-06-25T01:40:28.237Z,17.09
2017-06-25T01:40:41.647Z,17.15
2017-06-25T01:40:55.117Z,17.1
2017-06-25T01:41:08.049Z,17.06
2017-06-25T01:41:21.564Z,17.15
2017-06-25T01:41:35.011Z,17.07
2017-06-25T01:41:48.493Z,17.13
2017-06-25T01:42:01.994Z,17.15
2017-06-25T01:42:14.918Z,17.1
2017-06-25T01:42:28.352Z,17.1
2017-06-25T01:42:41.836Z,17.09
2017-06-25T01:42:54.723Z,17.06
2017-06-25T01:43:07.629Z,17.07
2017-06-25T01:43:21.050Z,17.09
2017-06-25T01:43:34.464Z,17.15
2017-06-25T01:43:47.921Z,17.03
2017-06-25T01:44:00.860Z,17.15
2017-06-25T01:44:14.334Z,17.12
2017-06-25T01:44:27.784Z,17.21
2017-06-25T01:44:41.474Z,17.17
2017-06-25T01:44:54.966Z,17.17
2017-06-25T01:45:07.937Z,17.18
2017-06-25T01:45:21.396Z,17.21
2017-06-25T01:45:34.871Z,17.12
2017-06-25T01:45:48.332Z,17.22
2017-06-25T01:46:01.779Z,17.2
2017-06-25T01:46:15.188Z,17.24
2017-06-25T01:46:28.645Z,17.22
2017-06-25T01:46:42.090Z,17.24
2017-06-25T01:46:55.527Z,17.24
2017-06-25T01:47:09.032Z,17.2
2017-06-25T01:47:22.433Z,17.24
2017-06-25T01:47:35.976Z,17.22
2017-06-25T01:47:48.913Z,17.24
2017-06-25T01:48:02.376Z,17.24
2017-06-25T01:48:15.880Z,17.24
2017-06-25T01:48:28.798Z,17.27
2017-06-25T01:48:41.758Z,17.2
2017-06-25T01:48:54.678Z,17.28
2017-06-25T01:49:08.196Z,17.2
2017-06-25T01:49:21.648Z,17.17
2017-06-25T01:49:35.099Z,17.17
2017-06-25T01:49:48.567Z,17.21
2017-06-25T01:50:01.523Z,17.22
2017-06-25T01:50:14.958Z,17.22
2017-06-25T01:50:28.388Z,17.22
2017-06-25T01:50:41.311Z,17.2
2017-06-25T01:50:54.948Z,17.25
2017-06-25T01:51:08.386Z,17.22
2017-06-25T01:51:21.812Z,17.25
2017-06-25T01:51:35.209Z,17.27
2017-06-25T01:51:48.604Z,17.3
2017-06-25T01:52:02.088Z,17.27
2017-06-25T01:52:15.538Z,17.21
2017-06-25T01:52:28.514Z,17.25
2017-06-25T01:52:41.443Z,17.3
2017-06-25T01:52:54.863Z,17.22
2017-06-25T01:53:08.519Z,17.3
2017-06-25T01:53:20.921Z,17.24
2017-06-25T01:53:34.333Z,17.27
2017-06-25T01:53:47.745Z,17.27
2017-06-25T01:54:00.620Z,17.22
2017-06-25T01:54:14.058Z,17.28
2017-06-25T01:54:27.486Z,17.21
2017-06-25T01:54:40.939Z,17.31
2017-06-25T01:54:54.368Z,17.3
2017-06-25T01:55:07.789Z,17.28
2017-06-25T01:55:21.254Z,17.3
2017-06-25T01:55:34.799Z,17.25
2017-06-25T01:55:48.304Z,17.31
2017-06-25T01:56:01.746Z,17.28
2017-06-25T01:56:15.222Z,17.3
2017-06-25T01:56:28.218Z,17.28
2017-06-25T01:56:41.659Z,17.21
2017-06-25T01:56:55.174Z,17.27
2017-06-25T01:57:08.607Z,17.28
2017-06-25T01:57:22.028Z,17.18
2017-06-25T01:57:34.951Z,17.21
2017-06-25T01:57:47.840Z,17.25
2017-06-25T01:58:01.366Z,17.21
2017-06-25T01:58:14.887Z,17.28
2017-06-25T01:58:28.397Z,17.25
2017-06-25T01:58:41.351Z,17.24
2017-06-25T01:58:54.753Z,17.22
2017-06-25T01:59:08.207Z,17.25
2017-06-25T01:59:21.750Z,17.24
2017-06-25T01:59:34.154Z,17.28
2017-06-25T01:59:47.791Z,17.28
2017-06-25T02:00:01.230Z,17.2
2017-06-25T02:00:14.767Z,17.22
2017-06-25T02:00:27.674Z,17.28
2017-06-25T02:00:41.115Z,17.21
2017-06-25T02:00:54.569Z,17.18
2017-06-25T02:01:08.029Z,17.24
2017-06-25T02:01:20.953Z,17.22
2017-06-25T02:01:34.624Z,17.31
2017-06-25T02:01:48.038Z,17.2
2017-06-25T02:02:01.462Z,17.22
2017-06-25T02:02:14.881Z,17.22
2017-06-25T02:02:28.354Z,17.27
2017-06-25T02:02:41.821Z,17.27
2017-06-25T02:02:54.727Z,17.22
2017-06-25T02:03:08.134Z,17.27
2017-06-25T02:03:21.588Z,17.22
2017-06-25T02:03:35.026Z,17.21
2017-06-25T02:03:47.957Z,17.28
2017-06-25T02:04:01.382Z,17.25
2017-06-25T02:04:14.864Z,17.18
2017-06-25T02:04:28.320Z,17.2
2017-06-25T02:04:41.732Z,17.27
2017-06-25T02:04:55.160Z,17.22
2017-06-25T02:05:08.568Z,17.22
2017-06-25T02:05:22.067Z,17.27
2017-06-25T02:05:35.814Z,17.25
2017-06-25T02:05:49.307Z,17.28
2017-06-25T02:06:01.693Z,17.25
2017-06-25T02:06:15.171Z,17.28
2017-06-25T02:06:28.637Z,17.27
2017-06-25T02:06:42.089Z,17.24
2017-06-25T02:06:55.586Z,17.31
2017-06-25T02:07:09.029Z,17.25
2017-06-25T02:07:22.010Z,17.32
2017-06-25T02:07:34.898Z,17.27
2017-06-25T02:07:47.807Z,17.27
2017-06-25T02:08:00.707Z,17.27
2017-06-25T02:08:14.161Z,17.35
2017-06-25T02:08:27.642Z,17.24
2017-06-25T02:08:41.073Z,17.28
2017-06-25T02:08:54.538Z,17.36
2017-06-25T02:09:07.976Z,17.38
2017-06-25T02:09:21.429Z,17.38
2017-06-25T02:09:33.843Z,17.4
2017-06-25T02:09:47.334Z,17.4
2017-06-25T02:10:00.795Z,17.38
2017-06-25T02:10:14.181Z,17.38
2017-06-25T02:10:26.574Z,17.35
2017-06-25T02:10:40.003Z,17.45
2017-06-25T02:10:52.947Z,17.39
2017-06-25T02:11:05.843Z,17.39
2017-06-25T02:11:19.345Z,17.39
2017-06-25T02:11:32.814Z,17.39
2017-06-25T02:11:46.278Z,17.39
2017-06-25T02:11:59.672Z,17.32
2017-06-25T02:12:13.116Z,17.38
2017-06-25T02:12:26.068Z,17.42
2017-06-25T02:12:39.559Z,17.32
2017-06-25T02:12:53.038Z,17.45
2017-06-25T02:13:06.442Z,17.39
2017-06-25T02:13:19.875Z,17.42
2017-06-25T02:13:33.568Z,17.49
2017-06-25T02:13:47.005Z,17.43
2017-06-25T02:13:59.923Z,17.42
2017-06-25T02:14:13.395Z,17.43
2017-06-25T02:14:26.902Z,17.42
2017-06-25T02:14:40.419Z,17.42
2017-06-25T02:14:53.581Z,17.43
2017-06-25T02:15:06.988Z,17.43
2017-06-25T02:15:20.482Z,17.42
2017-06-25T02:15:34.009Z,17.43
2017-06-25T02:15:46.924Z,17.47
2017-06-25T02:15:59.833Z,17.43
2017-06-25T02:16:13.279Z,17.39
2017-06-25T02:16:26.261Z,17.42
2017-06-25T02:16:39.743Z,17.43
2017-06-25T02:16:53.179Z,17.4
2017-06-25T02:17:06.091Z,17.42
2017-06-25T02:17:19.544Z,17.42
2017-06-25T02:17:33.028Z,17.39
2017-06-25T02:17:45.918Z,17.46
2017-06-25T02:17:59.385Z,17.43
2017-06-25T02:18:12.303Z,17.43
2017-06-25T02:18:25.754Z,17.43
2017-06-25T02:18:39.416Z,17.42
2017-06-25T02:18:52.929Z,17.36
2017-06-25T02:19:06.374Z,17.43
2017-06-25T02:19:19.810Z,17.31
2017-06-25T02:19:33.252Z,17.39
2017-06-25T02:19:46.134Z,17.31
2017-06-25T02:19:59.574Z,17.35
2017-06-25T02:20:13.004Z,17.39
2017-06-25T02:20:26.458Z,17.4
2017-06-25T02:20:39.434Z,17.39
2017-06-25T02:20:52.877Z,17.35
2017-06-25T02:21:06.341Z,17.38
2017-06-25T02:21:19.767Z,17.36
2017-06-25T02:21:33.208Z,17.35
2017-06-25T02:21:46.661Z,17.38
2017-06-25T02:22:00.087Z,17.45
2017-06-25T02:22:13.791Z,17.38
2017-06-25T02:22:27.240Z,17.42
2017-06-25T02:22:40.719Z,17.35
2017-06-25T02:22:53.684Z,17.38
2017-06-25T02:23:06.107Z,17.27
2017-06-25T02:23:19.540Z,17.4
2017-06-25T02:23:33.055Z,17.36
2017-06-25T02:23:46.482Z,17.27
2017-06-25T02:23:59.963Z,17.27
2017-06-25T02:24:13.450Z,17.28
2017-06-25T02:24:26.900Z,17.25
2017-06-25T02:24:40.427Z,17.25
2017-06-25T02:24:53.416Z,17.28
2017-06-25T02:25:05.779Z,17.32
2017-06-25T02:25:18.665Z,17.31
2017-06-25T02:25:32.044Z,17.32
2017-06-25T02:25:45.484Z,17.3
2017-06-25T02:25:58.903Z,17.3
2017-06-25T02:26:11.809Z,17.25
2017-06-25T02:26:25.221Z,17.28
2017-06-25T02:26:38.698Z,17.27
2017-06-25T02:26:52.154Z,17.25
2017-06-25T02:27:05.617Z,17.25
2017-06-25T02:27:19.065Z,17.31
2017-06-25T02:27:32.504Z,17.28
2017-06-25T02:27:45.926Z,17.24
2017-06-25T02:27:59.394Z,17.31
2017-06-25T02:28:12.301Z,17.25
2017-06-25T02:28:25.724Z,17.24
2017-06-25T02:28:39.206Z,17.28
2017-06-25T02:28:52.126Z,17.25
2017-06-25T02:29:04.520Z,17.21
2017-06-25T02:29:17.432Z,17.28
2017-06-25T02:29:30.926Z,17.27
2017-06-25T02:29:44.378Z,17.27
2017-06-25T02:29:57.543Z,17.25
2017-06-25T02:30:11.029Z,17.24
2017-06-25T02:30:24.483Z,17.35
2017-06-25T02:30:37.924Z,17.28
2017-06-25T02:30:50.868Z,17.3
2017-06-25T02:31:04.322Z,17.25
2017-06-25T02:31:17.790Z,17.24
2017-06-25T02:31:31.265Z,17.24
2017-06-25T02:31:44.715Z,17.28
2017-06-25T02:31:58.198Z,17.3
2017-06-25T02:32:11.622Z,17.28
2017-06-25T02:32:25.095Z,17.21
2017-06-25T02:32:38.509Z,17.28
2017-06-25T02:32:51.995Z,17.3
2017-06-25T02:33:05.481Z,17.25
2017-06-25T02:33:18.948Z,17.25
2017-06-25T02:33:32.373Z,17.28
2017-06-25T02:33:45.798Z,17.25
2017-06-25T02:33:59.244Z,17.25
2017-06-25T02:34:12.883Z,17.31
2017-06-25T02:34:26.317Z,17.25
2017-06-25T02:34:39.771Z,17.27
2017-06-25T02:34:53.226Z,17.25
2017-06-25T02:35:06.686Z,17.28
2017-06-25T02:35:20.154Z,17.27
2017-06-25T02:35:33.850Z,17.28
2017-06-25T02:35:47.274Z,17.28
2017-06-25T02:36:00.688Z,17.31
2017-06-25T02:36:14.105Z,17.25
2017-06-25T02:36:27.532Z,17.22
2017-06-25T02:36:40.490Z,17.27
2017-06-25T02:36:53.903Z,17.27
2017-06-25T02:37:07.407Z,17.27
2017-06-25T02:37:20.863Z,17.27
2017-06-25T02:37:34.384Z,17.28
2017-06-25T02:37:48.060Z,17.27
2017-06-25T02:38:00.995Z,17.28
2017-06-25T02:38:13.952Z,17.3
2017-06-25T02:38:27.397Z,17.28
2017-06-25T02:38:40.866Z,17.28
2017-06-25T02:38:54.349Z,17.18
2017-06-25T02:39:06.738Z,17.28
2017-06-25T02:39:20.228Z,17.27
2017-06-25T02:39:33.742Z,17.2
2017-06-25T02:39:47.310Z,17.27
2017-06-25T02:40:00.743Z,17.17
2017-06-25T02:40:13.696Z,17.22
2017-06-25T02:40:27.144Z,17.18
2017-06-25T02:40:40.611Z,17.2
2017-06-25T02:40:54.060Z,17.22
2017-06-25T02:41:07.511Z,17.25
2017-06-25T02:41:20.945Z,17.22
2017-06-25T02:41:34.410Z,17.28
2017-06-25T02:41:47.864Z,17.27
2017-06-25T02:42:00.226Z,17.2
2017-06-25T02:42:13.658Z,17.22
2017-06-25T02:42:27.146Z,17.24
2017-06-25T02:42:40.583Z,17.2
2017-06-25T02:42:53.517Z,17.24
2017-06-25T02:43:06.927Z,17.27
2017-06-25T02:43:20.428Z,17.25
2017-06-25T02:43:33.874Z,17.24
2017-06-25T02:43:47.368Z,17.28
2017-06-25T02:44:00.787Z,17.24
2017-06-25T02:44:14.262Z,17.25
2017-06-25T02:44:27.724Z,17.18
2017-06-25T02:44:41.181Z,17.22
2017-06-25T02:44:54.596Z,17.18
2017-06-25T02:45:08.273Z,17.22
2017-06-25T02:45:21.747Z,17.18
2017-06-25T02:45:34.652Z,17.18
2017-06-25T02:45:48.166Z,17.15
2017-06-25T02:46:01.609Z,17.2
2017-06-25T02:46:15.001Z,17.17
2017-06-25T02:46:28.457Z,17.1
2017-06-25T02:46:41.969Z,17.15
2017-06-25T02:46:54.877Z,17.18
2017-06-25T02:47:07.774Z,17.21
2017-06-25T02:47:21.211Z,17.18
2017-06-25T02:47:34.689Z,17.12
2017-06-25T02:47:48.191Z,17.18
2017-06-25T02:48:01.733Z,17.17
2017-06-25T02:48:14.673Z,17.12
2017-06-25T02:48:28.073Z,17.18
2017-06-25T02:48:41.568Z,17.2
2017-06-25T02:48:55.040Z,17.13
2017-06-25T02:49:08.578Z,17.17
2017-06-25T02:49:22.053Z,17.15
2017-06-25T02:49:35.579Z,17.22
2017-06-25T02:49:49.102Z,17.2
2017-06-25T02:50:02.516Z,17.17
2017-06-25T02:50:15.920Z,17.18
2017-06-25T02:50:29.414Z,17.21
2017-06-25T02:50:42.818Z,17.18
2017-06-25T02:50:56.282Z,17.13
2017-06-25T02:51:09.778Z,17.18
2017-06-25T02:51:23.275Z,17.17
2017-06-25T02:51:36.732Z,17.09
2017-06-25T02:51:50.124Z,17.15